East Vestal, New York
Current Conditions -  °F | °C
As of 3:53 AM on Friday 24 Oct 2014 (Local Time) from KBGM Reporting Station
Overcast Overcast  
Wind Chill: 38°   Ceiling: 1000
Heat Index: 45°   Visibility: 10mi
Dew Point: 42°   Wind: 16mph
Humidity: 90%   Direction: 340°NNW
Pressure: 29.88"   Gusts: 23mph
Location:  42.0523°N, 75.9029°W
Report Text: KBGM 240753Z AUTO 34014G20KT 10SM OVC010 07/06 A2988 RMK AO2 SLP125 T00720056
Loading
Personal Weather Stations






























Interactive Weather Map New forecast layout! Learn more

10-Day Weather Forecast

Advertisements
Track Severe Weather on mobile